Time;durP1;ratioP1;P1;durP2;ratioP2;P2;SDS_P1;SDS_P2;PMS_P1;PMS_P2;Temp;Humidity;BMP_temperature;BMP_pressure;BME280_temperature;BME280_humidity;BME280_pressure;Samples;Min_cycle;Max_cycle;Signal;HPM_P1;HPM_P2
2023/10/17 00:02:27;;;;;;;3.17;1.33;;;;;;;7.64;55.01;99706.00;4454056;32;34027;-94
2023/10/17 00:04:55;;;;;;;4.35;1.62;;;;;;;7.62;55.05;99705.09;4453571;32;34063;-93
2023/10/17 00:07:23;;;;;;;4.28;1.58;;;;;;;7.75;54.66;99697.78;4439972;32;31970;-94
2023/10/17 00:09:50;;;;;;;6.15;1.75;;;;;;;7.65;54.89;99700.91;4439670;32;33381;-91
2023/10/17 00:14:57;;;;;;;4.97;1.77;;;;;;;7.71;54.58;99698.53;4453848;32;34139;-95
2023/10/17 00:17:34;;;;;;;4.57;1.65;;;;;;;7.64;54.63;99695.69;4453556;32;34435;-95
2023/10/17 00:20:08;;;;;;;5.97;2.37;;;;;;;7.63;54.34;99684.50;4453192;32;34573;-96
2023/10/17 00:22:36;;;;;;;5.55;1.80;;;;;;;7.62;54.26;99692.19;4453549;32;34813;-95
2023/10/17 00:25:09;;;;;;;3.90;1.33;;;;;;;7.62;54.41;99689.63;4453642;32;33615;-96
2023/10/17 00:27:38;;;;;;;4.28;1.83;;;;;;;7.67;54.19;99685.47;4453509;32;34055;-95
2023/10/17 00:30:07;;;;;;;4.53;1.45;;;;;;;7.54;54.54;99684.22;4453069;32;33975;-95
2023/10/17 00:32:41;;;;;;;4.97;1.55;;;;;;;7.52;54.61;99680.69;4453227;32;34009;-93
2023/10/17 00:35:13;;;;;;;4.15;1.70;;;;;;;7.53;54.35;99677.28;4453806;32;33712;-95
2023/10/17 00:37:49;;;;;;;5.50;1.55;;;;;;;7.38;55.15;99687.06;4453571;32;32205;-94
2023/10/17 00:41:03;;;;;;;4.87;1.70;;;;;;;7.43;55.26;99678.69;4453243;32;33940;-94
2023/10/17 00:43:11;;;;;;;5.97;1.90;;;;;;;7.47;55.04;99679.66;4438231;32;33935;-96
2023/10/17 00:45:43;;;;;;;4.72;1.62;;;;;;;7.42;55.34;99673.47;4440165;32;33576;-95
2023/10/17 00:48:17;;;;;;;4.93;1.67;;;;;;;7.26;55.92;99677.22;4453147;32;33299;-96
2023/10/17 00:50:48;;;;;;;5.15;1.50;;;;;;;7.34;55.76;99674.91;4455664;32;33559;-95
2023/10/17 00:53:16;;;;;;;5.90;1.55;;;;;;;7.38;55.41;99671.59;4454778;32;33879;-95
2023/10/17 00:55:50;;;;;;;3.92;1.33;;;;;;;7.42;55.49;99673.47;4442163;32;34112;-96
2023/10/17 00:58:38;;;;;;;5.32;1.83;;;;;;;7.28;55.87;99673.00;4452984;32;31875;-93
2023/10/17 01:01:13;;;;;;;5.55;1.65;;;;;;;7.25;55.63;99666.03;4439488;32;33735;-95
2023/10/17 01:03:44;;;;;;;3.40;1.45;;;;;;;7.35;55.04;99669.81;4453313;32;34743;-93
2023/10/17 01:06:36;;;;;;;4.57;1.55;;;;;;;7.46;54.80;99665.00;4444264;32;33829;-95
2023/10/17 01:09:14;;;;;;;5.25;1.75;;;;;;;7.41;55.04;99656.22;4456779;32;33605;-95
2023/10/17 01:11:43;;;;;;;4.45;1.58;;;;;;;7.32;55.18;99647.38;4469463;32;33837;-95
2023/10/17 01:14:18;;;;;;;5.00;1.67;;;;;;;7.24;55.26;99655.69;4455042;32;34073;-95
2023/10/17 01:17:07;;;;;;;3.55;1.33;;;;;;;7.37;55.08;99654.38;4457840;32;34242;-95
2023/10/17 01:19:35;;;;;;;5.55;1.45;;;;;;;7.14;55.52;99662.22;4469234;32;33190;-95
2023/10/17 01:22:03;;;;;;;4.47;1.70;;;;;;;7.35;54.93;99651.75;4465667;32;33473;-96
2023/10/17 01:24:32;;;;;;;7.40;1.90;;;;;;;7.21;55.18;99650.41;4467331;32;33672;-94
2023/10/17 01:27:06;;;;;;;4.70;1.80;;;;;;;7.22;55.20;99647.00;4453267;32;34416;-93
2023/10/17 01:29:43;;;;;;;4.50;1.58;;;;;;;7.21;55.58;99653.00;4453096;32;34133;-93
2023/10/17 01:32:11;;;;;;;3.72;1.30;;;;;;;7.24;55.21;99655.69;4453252;32;33988;-94
2023/10/17 01:34:39;;;;;;;6.43;1.75;;;;;;;7.17;55.33;99653.72;4453677;32;33747;-95
2023/10/17 01:37:10;;;;;;;5.28;1.58;;;;;;;7.24;55.09;99645.38;4453348;32;33809;-92
2023/10/17 01:39:38;;;;;;;4.12;1.30;;;;;;;7.26;54.75;99651.44;4453468;32;33007;-94
2023/10/17 01:42:06;;;;;;;4.03;1.58;;;;;;;7.29;55.11;99648.97;4453491;32;33871;-95
2023/10/17 01:44:33;;;;;;;6.10;1.52;;;;;;;7.22;55.40;99650.47;4453620;32;33808;-95
2023/10/17 01:47:02;;;;;;;4.18;1.30;;;;;;;7.26;55.15;99646.28;4452952;32;34601;-96
2023/10/17 01:49:29;;;;;;;4.30;1.42;;;;;;;7.18;55.06;99658.91;4453055;32;33845;-95
2023/10/17 01:51:57;;;;;;;6.35;1.55;;;;;;;7.21;54.90;99648.72;4453349;32;33413;-95
2023/10/17 01:54:29;;;;;;;7.35;1.70;;;;;;;7.24;54.96;99653.97;4453277;32;34011;-92
2023/10/17 01:57:05;;;;;;;2.83;1.25;;;;;;;7.28;54.88;99655.84;4468573;32;34693;-96
2023/10/17 01:59:34;;;;;;;4.32;1.30;;;;;;;7.17;55.04;99657.16;4454405;32;33984;-93
2023/10/17 02:02:03;;;;;;;4.37;1.33;;;;;;;7.28;54.88;99652.38;4467998;32;33657;-91
2023/10/17 02:04:34;;;;;;;5.00;1.27;;;;;;;7.17;55.38;99657.16;4468160;32;35141;-95
2023/10/17 02:07:03;;;;;;;4.55;1.50;;;;;;;7.32;55.17;99659.41;4454996;32;33862;-93
2023/10/17 02:12:02;;;;;;;5.57;1.77;;;;;;;7.44;55.04;99653.75;4467612;32;33831;-93
2023/10/17 02:14:30;;;;;;;4.18;1.80;;;;;;;7.51;54.80;99659.16;4467735;32;34583;-94
2023/10/17 02:16:59;;;;;;;4.68;1.37;;;;;;;7.41;55.05;99662.25;4452834;32;33206;-95
2023/10/17 02:19:31;;;;;;;6.22;1.50;;;;;;;7.37;55.38;99659.53;4452914;32;33931;-94
2023/10/17 02:22:00;;;;;;;3.50;1.50;;;;;;;7.50;54.81;99659.09;4452858;32;34010;-95
2023/10/17 02:24:29;;;;;;;5.68;1.55;;;;;;;7.50;55.19;99657.44;4443244;32;34571;-96
2023/10/17 02:27:00;;;;;;;4.12;1.52;;;;;;;7.64;54.84;99663.00;4467933;32;33779;-96
2023/10/17 02:29:29;;;;;;;4.62;1.40;;;;;;;7.62;54.70;99662.09;4468342;32;33937;-95
2023/10/17 02:31:58;;;;;;;3.12;1.33;;;;;;;7.59;54.64;99667.16;4467991;32;34482;-95
2023/10/17 02:34:29;;;;;;;4.82;1.60;;;;;;;7.55;54.69;99665.31;4449908;32;34811;-94
2023/10/17 02:37:00;;;;;;;4.40;1.50;;;;;;;7.58;54.73;99665.41;4439125;32;33861;-96
2023/10/17 02:39:28;;;;;;;4.22;1.35;;;;;;;7.66;54.38;99666.53;4452461;32;33392;-92
2023/10/17 02:42:06;;;;;;;5.30;1.60;;;;;;;7.57;54.43;99668.81;4452090;32;35180;-95
2023/10/17 02:44:39;;;;;;;3.53;1.00;;;;;;;7.61;54.28;99670.66;4456648;32;34587;-95
2023/10/17 02:47:11;;;;;;;2.80;1.23;;;;;;;7.73;53.92;99671.06;4454103;32;33780;-94
2023/10/17 02:49:42;;;;;;;4.95;1.20;;;;;;;7.73;53.86;99665.03;4467526;32;33687;-94
2023/10/17 02:52:10;;;;;;;4.28;1.40;;;;;;;7.77;53.33;99664.31;4453526;32;34634;-96
2023/10/17 02:54:56;;;;;;;4.60;1.17;;;;;;;7.88;53.23;99659.44;4467761;32;34755;-92
2023/10/17 02:57:26;;;;;;;3.50;1.20;;;;;;;7.70;53.40;99663.22;4468146;32;33714;-94
2023/10/17 02:59:57;;;;;;;4.93;1.40;;;;;;;7.63;53.53;99663.84;4467888;32;34623;-91
2023/10/17 03:02:37;;;;;;;3.30;1.05;;;;;;;7.71;53.34;99662.38;4467776;32;34850;-92
2023/10/17 03:05:11;;;;;;;5.28;1.27;;;;;;;7.66;53.34;99669.12;4454160;32;33809;-92
2023/10/17 03:07:42;;;;;;;4.95;1.48;;;;;;;7.75;53.18;99669.41;4451962;32;34507;-91
2023/10/17 03:10:20;;;;;;;5.87;1.42;;;;;;;7.78;52.99;99672.09;4438214;32;33396;-92
2023/10/17 03:12:55;;;;;;;3.22;1.27;;;;;;;7.82;52.75;99677.34;4451549;32;34234;-94
2023/10/17 03:15:29;;;;;;;3.72;1.10;;;;;;;7.82;52.53;99674.78;4438217;32;34282;-91
2023/10/17 03:18:03;;;;;;;4.22;1.60;;;;;;;7.76;52.53;99675.44;4438600;32;33354;-92
2023/10/17 03:20:41;;;;;;;4.72;1.30;;;;;;;7.69;52.66;99674.38;4451937;32;33234;-96
2023/10/17 03:23:10;;;;;;;3.80;1.30;;;;;;;7.67;52.52;99670.00;4448539;32;34772;-92
2023/10/17 03:25:37;;;;;;;4.53;1.33;;;;;;;7.65;52.71;99682.84;4454510;32;33884;-87
2023/10/17 03:28:13;;;;;;;5.62;1.65;;;;;;;7.63;52.63;99675.88;4469261;32;33643;-92
2023/10/17 03:30:42;;;;;;;3.80;1.10;;;;;;;7.65;52.73;99676.78;4456004;32;33852;-93
2023/10/17 03:33:14;;;;;;;3.90;1.35;;;;;;;7.61;52.99;99665.50;4444222;32;33791;-93
2023/10/17 03:38:51;;;;;;;3.12;1.30;;;;;;;7.55;53.78;99673.06;4443856;32;33783;-94
2023/10/17 03:41:24;;;;;;;5.12;2.05;;;;;;;7.47;53.72;99671.94;4453950;32;33675;-95
2023/10/17 03:43:52;;;;;;;7.15;2.33;;;;;;;7.35;53.78;99679.22;4453872;32;33502;-94
2023/10/17 03:46:25;;;;;;;5.45;2.22;;;;;;;7.40;53.66;99672.53;4453843;32;33625;-94
2023/10/17 03:49:00;;;;;;;4.70;2.20;;;;;;;7.49;53.38;99671.13;4440893;32;34489;-94
2023/10/17 03:51:30;;;;;;;6.65;2.78;;;;;;;7.50;53.03;99675.50;4454057;32;33205;-94
2023/10/17 03:54:10;;;;;;;6.87;2.45;;;;;;;7.33;53.65;99674.03;4453698;32;33555;-95
2023/10/17 03:56:49;;;;;;;6.57;2.67;;;;;;;7.31;53.77;99680.81;4454126;32;33846;-92
2023/10/17 03:59:21;;;;;;;6.00;2.28;;;;;;;7.17;54.01;99679.50;4453654;32;34475;-95
2023/10/17 04:01:49;;;;;;;4.18;1.45;;;;;;;7.50;53.15;99675.50;4453757;32;33498;-94
2023/10/17 04:04:35;;;;;;;5.43;1.92;;;;;;;7.20;54.10;99674.47;4453538;32;33478;-95
2023/10/17 04:07:26;;;;;;;5.50;2.10;;;;;;;7.28;54.12;99671.31;4439617;32;33416;-93
2023/10/17 04:15:48;;;;;;;4.62;1.50;;;;;;;7.02;54.94;99672.13;4405769;32;33766;-94
2023/10/17 04:18:17;;;;;;;5.45;1.92;;;;;;;6.97;55.18;99668.47;4434288;32;33276;-92
2023/10/17 04:20:46;;;;;;;4.93;1.65;;;;;;;6.93;55.21;99657.22;4453029;32;34454;-94
2023/10/17 04:23:21;;;;;;;5.30;1.50;;;;;;;6.88;55.33;99663.88;4462450;32;33094;-95
2023/10/17 04:25:55;;;;;;;3.40;1.52;;;;;;;6.92;55.05;99664.88;4468915;32;33718;-91
2023/10/17 04:28:26;;;;;;;3.50;1.73;;;;;;;6.65;55.83;99673.37;4453344;32;34601;-94
2023/10/17 04:30:56;;;;;;;3.90;1.67;;;;;;;6.98;54.87;99665.97;4453027;32;34726;-95
2023/10/17 04:33:28;;;;;;;3.58;1.33;;;;;;;7.04;54.89;99670.44;4453137;32;33253;-92
2023/10/17 04:35:59;;;;;;;5.62;1.60;;;;;;;6.96;55.01;99666.72;4452795;32;34925;-95
2023/10/17 04:38:36;;;;;;;5.72;1.30;;;;;;;6.87;55.52;99661.25;4452830;32;34181;-89
2023/10/17 04:43:45;;;;;;;4.78;1.90;;;;;;;7.04;54.81;99670.44;4452216;32;33653;-91
2023/10/17 04:46:13;;;;;;;5.20;1.80;;;;;;;7.07;54.84;99674.00;4452100;32;33759;-95
2023/10/17 04:48:46;;;;;;;4.40;1.45;;;;;;;7.05;55.04;99673.09;4460125;32;33830;-95
2023/10/17 04:53:48;;;;;;;5.40;1.95;;;;;;;7.16;54.26;99681.22;4458146;32;33123;-93
2023/10/17 04:56:17;;;;;;;7.53;2.08;;;;;;;7.24;53.94;99678.91;4466278;32;33526;-92
2023/10/17 05:01:39;;;;;;;5.07;2.10;;;;;;;7.01;54.69;99676.41;4447216;32;32663;-87
2023/10/17 06:18:18;;;;;;;5.62;3.00;;;;;;;7.14;55.89;99743.84;4467873;32;34001;-93
2023/10/17 06:21:06;;;;;;;6.35;2.95;;;;;;;7.22;55.52;99732.09;4467978;32;34713;-94
2023/10/17 06:35:20;;;;;;;36.47;20.83;;;;;;;7.52;55.98;99742.59;4441579;32;33033;-95
2023/10/17 06:37:49;;;;;;;34.30;22.27;;;;;;;7.60;55.79;99743.75;4467902;32;33960;-94
2023/10/17 06:40:17;;;;;;;38.15;24.73;;;;;;;7.67;56.44;99739.66;4468167;32;33991;-94
2023/10/17 06:45:54;;;;;;;31.37;21.27;;;;;;;7.79;56.50;99748.69;4457224;32;33004;-94
2023/10/17 06:48:35;;;;;;;23.67;15.75;;;;;;;7.68;57.03;99750.03;4453303;32;33590;-93
2023/10/17 06:51:30;;;;;;;26.00;20.08;;;;;;;7.86;56.39;99752.34;4457201;32;34878;-93
2023/10/17 06:54:05;;;;;;;24.52;16.50;;;;;;;8.18;55.58;99756.00;4467371;32;33750;-94
2023/10/17 06:56:55;;;;;;;23.08;15.32;;;;;;;8.15;55.61;99748.13;4467428;32;33037;-95
2023/10/17 06:59:24;;;;;;;22.08;14.63;;;;;;;8.18;55.23;99750.81;4468865;32;33524;-94
2023/10/17 07:04:42;;;;;;;19.15;12.63;;;;;;;8.15;55.43;99752.44;4469175;32;32909;-93
2023/10/17 07:07:11;;;;;;;18.60;12.77;;;;;;;8.23;55.37;99744.09;4469294;32;34283;-92
2023/10/17 07:09:39;;;;;;;15.60;10.65;;;;;;;8.27;55.32;99751.09;4455042;32;33796;-91
2023/10/17 07:12:16;;;;;;;14.80;9.70;;;;;;;8.32;55.12;99745.19;4455171;32;34359;-92
2023/10/17 07:14:48;;;;;;;14.55;8.43;;;;;;;8.12;55.54;99748.03;4469552;32;33454;-92
2023/10/17 07:17:28;;;;;;;13.68;9.05;;;;;;;8.11;55.77;99746.28;4443143;32;32479;-94
2023/10/17 07:19:59;;;;;;;12.07;7.55;;;;;;;8.23;54.98;99751.84;4469259;32;33825;-91
2023/10/17 07:22:35;;;;;;;14.40;9.60;;;;;;;8.19;54.11;99743.94;4455555;32;34981;-91
2023/10/17 07:25:14;;;;;;;10.88;6.65;;;;;;;8.13;54.76;99749.78;4455837;32;33627;-92
2023/10/17 07:27:44;;;;;;;8.43;6.10;;;;;;;8.41;53.29;99740.31;4469131;32;34165;-89
2023/10/17 07:30:13;;;;;;;16.30;7.97;;;;;;;8.14;53.46;99746.34;4468764;32;33683;-91
2023/10/17 07:32:45;;;;;;;13.02;7.18;;;;;;;8.73;52.54;99749.94;4468623;32;33903;-91
2023/10/17 07:35:36;;;;;;;10.95;5.68;;;;;;;8.38;53.94;99753.19;4468533;32;34594;-89
2023/10/17 07:38:04;;;;;;;14.90;6.62;;;;;;;8.42;53.28;99753.31;4454795;32;32761;-89
2023/10/17 07:43:07;;;;;;;8.15;5.40;;;;;;;8.66;52.16;99755.75;4468566;32;35106;-88
2023/10/17 07:45:41;;;;;;;11.73;5.35;;;;;;;8.40;52.55;99751.50;4454610;32;34457;-88
2023/10/17 07:48:20;;;;;;;10.13;5.62;;;;;;;8.26;53.63;99745.91;4454949;32;33301;-90
2023/10/17 07:50:50;;;;;;;9.25;5.32;;;;;;;8.36;54.09;99750.50;4442578;32;34673;-91
2023/10/17 07:53:21;;;;;;;11.05;5.50;;;;;;;8.82;53.20;99753.62;4468769;32;34863;-91
2023/10/17 07:55:52;;;;;;;10.88;5.45;;;;;;;8.79;52.77;99749.25;4468800;32;33344;-90
2023/10/17 07:58:41;;;;;;;11.00;5.18;;;;;;;8.88;53.82;99748.63;4457289;32;33283;-88
2023/10/17 08:01:18;;;;;;;9.30;5.37;;;;;;;9.19;51.73;99745.19;4468546;32;34072;-91
2023/10/17 08:04:12;;;;;;;12.57;5.65;;;;;;;9.04;51.64;99745.62;4468376;32;34016;-91
2023/10/17 08:07:00;;;;;;;10.57;5.32;;;;;;;9.21;51.73;99744.41;4468521;32;33739;-90
2023/10/17 08:09:36;;;;;;;7.87;4.95;;;;;;;9.22;51.33;99746.16;4468313;32;33582;-90
2023/10/17 08:12:08;;;;;;;8.73;5.12;;;;;;;9.20;51.96;99744.34;4441355;32;33279;-91
2023/10/17 08:14:42;;;;;;;12.13;6.60;;;;;;;9.44;51.20;99745.03;4468014;32;33726;-91
2023/10/17 08:17:10;;;;;;;11.20;5.93;;;;;;;9.43;50.94;99753.62;4468310;32;34337;-92
2023/10/17 08:22:41;;;;;;;12.23;5.95;;;;;;;9.77;50.16;99745.84;4468353;32;33975;-91
2023/10/17 08:25:14;;;;;;;9.43;5.57;;;;;;;10.20;48.95;99748.66;4440988;32;34014;-92
2023/10/17 08:27:45;;;;;;;11.73;5.90;;;;;;;9.82;50.31;99745.12;4468138;32;34554;-91
2023/10/17 08:30:23;;;;;;;10.40;5.10;;;;;;;9.96;49.14;99742.87;4467905;32;33912;-92
2023/10/17 08:33:11;;;;;;;11.88;5.90;;;;;;;10.12;48.43;99746.72;4456163;32;33390;-89
2023/10/17 08:35:40;;;;;;;12.40;6.95;;;;;;;10.18;49.32;99741.66;4453879;32;33095;-90
2023/10/17 08:38:11;;;;;;;10.52;6.00;;;;;;;10.26;48.91;99747.94;4468287;32;34559;-90
2023/10/17 08:40:43;;;;;;;9.43;5.10;;;;;;;10.50;48.11;99739.00;4468195;32;34399;-90
2023/10/17 08:43:14;;;;;;;11.70;5.03;;;;;;;10.82;46.59;99743.13;4454455;32;33898;-91
2023/10/17 08:45:46;;;;;;;7.93;4.22;;;;;;;10.62;47.32;99734.94;4455137;32;34824;-90
2023/10/17 08:48:14;;;;;;;7.05;4.45;;;;;;;11.02;46.13;99733.16;4453826;32;34284;-89
2023/10/17 08:50:43;;;;;;;6.93;4.30;;;;;;;11.28;45.95;99732.78;4468095;32;33491;-89
2023/10/17 08:55:48;;;;;;;6.30;4.07;;;;;;;11.54;46.48;99720.28;4454753;32;34082;-90
2023/10/17 08:58:17;;;;;;;9.30;3.90;;;;;;;11.76;44.60;99725.00;4467901;32;34031;-91
2023/10/17 09:03:36;;;;;;;6.87;3.87;;;;;;;11.79;44.02;99725.06;4468113;32;34372;-91
2023/10/17 09:08:55;;;;;;;11.65;7.05;;;;;;;12.06;43.02;99721.19;4441091;32;34027;-89
2023/10/17 09:11:34;;;;;;;12.48;4.82;;;;;;;11.47;44.93;99726.22;4455992;32;33633;-89
2023/10/17 09:14:24;;;;;;;9.50;4.60;;;;;;;11.84;44.32;99727.78;4467652;32;33358;-92
2023/10/17 09:17:16;;;;;;;7.97;3.72;;;;;;;11.93;43.73;99727.91;4467887;32;34075;-91
2023/10/17 09:19:51;;;;;;;7.50;4.00;;;;;;;11.95;43.12;99726.22;4467956;32;34486;-90
2023/10/17 09:22:23;;;;;;;10.38;3.97;;;;;;;12.21;43.69;99724.03;4468011;32;33831;-90
2023/10/17 09:24:51;;;;;;;8.70;4.80;;;;;;;12.03;43.80;99722.00;4467629;32;34568;-91
2023/10/17 09:27:19;;;;;;;12.60;4.32;;;;;;;12.38;42.94;99711.25;4467817;32;33980;-92
2023/10/17 09:29:59;;;;;;;10.60;4.47;;;;;;;12.44;41.76;99715.69;4453857;32;33526;-91
2023/10/17 09:32:33;;;;;;;8.10;3.95;;;;;;;12.11;43.41;99717.81;4467927;32;33583;-91
2023/10/17 09:35:15;;;;;;;6.65;4.03;;;;;;;12.46;42.48;99721.78;4453993;32;33910;-92
2023/10/17 09:37:44;;;;;;;12.32;4.72;;;;;;;11.98;44.11;99721.09;4454071;32;34805;-91
2023/10/17 09:40:14;;;;;;;9.40;5.00;;;;;;;12.36;42.96;99723.38;4467623;32;34639;-91
2023/10/17 09:42:47;;;;;;;9.65;5.37;;;;;;;12.34;43.03;99722.47;4467286;32;34191;-89
2023/10/17 09:45:15;;;;;;;7.72;4.78;;;;;;;12.60;42.45;99721.13;4453871;32;33369;-91
2023/10/17 09:48:04;;;;;;;8.77;4.50;;;;;;;12.79;43.15;99709.22;4467429;32;33338;-91
2023/10/17 09:50:35;;;;;;;10.15;5.28;;;;;;;12.86;43.51;99711.03;4453760;32;33686;-91
2023/10/17 09:53:16;;;;;;;8.40;4.18;;;;;;;12.89;42.18;99705.00;4467532;32;33379;-91
2023/10/17 09:55:50;;;;;;;9.50;4.30;;;;;;;13.04;42.29;99694.78;4453355;32;33766;-91
2023/10/17 09:58:22;;;;;;;9.57;4.40;;;;;;;12.97;41.39;99689.50;4467663;32;33994;-91
2023/10/17 10:01:00;;;;;;;7.22;4.32;;;;;;;13.29;42.17;99692.47;4467587;32;33564;-91
2023/10/17 10:03:28;;;;;;;8.95;4.45;;;;;;;13.48;42.46;99696.13;4467487;32;34189;-91
2023/10/17 10:06:22;;;;;;;8.75;4.45;;;;;;;13.63;40.48;99685.84;4453415;32;33153;-88
2023/10/17 10:08:57;;;;;;;8.45;4.03;;;;;;;13.55;41.39;99687.50;4467527;32;34690;-87
2023/10/17 10:11:46;;;;;;;10.27;5.00;;;;;;;13.72;40.62;99685.06;4453619;32;33436;-90
2023/10/17 10:14:15;;;;;;;11.95;4.35;;;;;;;13.75;39.25;99680.75;4453194;32;32514;-90
2023/10/17 10:17:14;;;;;;;11.12;5.07;;;;;;;13.54;40.71;99676.22;4467386;32;34657;-90
2023/10/17 10:19:43;;;;;;;11.55;4.32;;;;;;;13.71;41.40;99685.91;4467468;32;33738;-89
2023/10/17 10:22:12;;;;;;;8.07;4.00;;;;;;;13.61;40.63;99677.16;4467570;32;33596;-89
2023/10/17 10:24:41;;;;;;;10.77;4.70;;;;;;;14.21;39.52;99670.66;4467139;32;34098;-90
2023/10/17 10:27:18;;;;;;;7.53;4.18;;;;;;;14.17;37.46;99670.59;4453308;32;34647;-92
2023/10/17 10:29:52;;;;;;;9.32;4.78;;;;;;;14.10;38.38;99667.97;4453710;32;33948;-92
2023/10/17 10:32:35;;;;;;;10.50;5.10;;;;;;;13.61;38.49;99664.13;4440830;32;33863;-90
2023/10/17 10:35:05;;;;;;;9.95;4.75;;;;;;;13.60;38.71;99660.66;4453334;32;34075;-90
2023/10/17 10:37:53;;;;;;;7.78;4.30;;;;;;;13.90;39.65;99659.13;4453130;32;33918;-90
2023/10/17 10:40:22;;;;;;;10.20;4.55;;;;;;;14.28;39.50;99655.88;4452941;32;33709;-88
2023/10/17 10:42:52;;;;;;;9.45;4.60;;;;;;;14.22;39.54;99659.34;4452703;32;33402;-89
2023/10/17 10:45:36;;;;;;;8.75;4.30;;;;;;;14.41;37.04;99642.06;4453099;32;33815;-90
2023/10/17 10:48:15;;;;;;;7.93;3.87;;;;;;;14.44;40.65;99642.06;4453013;32;33621;-89
2023/10/17 10:50:44;;;;;;;8.90;4.20;;;;;;;14.68;39.38;99636.09;4452968;32;34701;-91
2023/10/17 10:53:24;;;;;;;8.60;4.32;;;;;;;14.87;35.83;99620.50;4467186;32;33581;-90
2023/10/17 10:55:52;;;;;;;9.15;5.45;;;;;;;14.91;35.69;99619.66;4453300;32;33087;-91
2023/10/17 10:58:20;;;;;;;8.43;5.18;;;;;;;14.76;36.99;99618.72;4467203;32;33769;-89
2023/10/17 11:00:47;;;;;;;8.57;5.20;;;;;;;14.42;37.55;99628.13;4467266;32;33571;-90
2023/10/17 11:03:18;;;;;;;10.65;4.60;;;;;;;14.56;36.44;99616.06;4465860;32;33329;-87
2023/10/17 11:06:03;;;;;;;10.88;5.65;;;;;;;14.76;36.36;99618.72;4451676;32;33224;-86
2023/10/17 11:08:45;;;;;;;9.63;4.50;;;;;;;14.60;37.94;99620.44;4466037;32;33531;-89
2023/10/17 11:11:16;;;;;;;9.60;4.70;;;;;;;14.65;38.00;99603.91;4452452;32;33634;-90
2023/10/17 11:13:45;;;;;;;8.63;4.45;;;;;;;14.98;36.45;99610.97;4452764;32;33388;-90
2023/10/17 11:16:21;;;;;;;7.68;3.90;;;;;;;15.08;35.38;99605.78;4466864;32;33117;-89
2023/10/17 11:18:49;;;;;;;7.95;4.18;;;;;;;14.82;36.73;99602.25;4453292;32;33657;-88
2023/10/17 11:21:21;;;;;;;8.68;3.97;;;;;;;13.93;37.13;99601.78;4452564;32;34011;-89
2023/10/17 11:23:53;;;;;;;8.93;4.50;;;;;;;14.68;36.78;99601.31;4466440;32;33867;-90
2023/10/17 11:26:25;;;;;;;8.00;4.10;;;;;;;14.82;37.67;99597.00;4452622;32;32773;-89
2023/10/17 11:28:56;;;;;;;8.68;4.07;;;;;;;14.91;38.71;99604.00;4452770;32;35133;-89
2023/10/17 11:31:26;;;;;;;9.65;4.43;;;;;;;15.06;35.96;99594.44;4452606;32;34708;-89
2023/10/17 11:33:55;;;;;;;13.65;5.87;;;;;;;14.88;38.86;99602.22;4451937;32;32672;-87
2023/10/17 11:36:23;;;;;;;10.77;4.25;;;;;;;15.15;36.17;99597.94;4452163;32;34079;-88
2023/10/17 11:38:58;;;;;;;11.25;3.92;;;;;;;14.60;35.61;99589.13;4466328;32;33569;-88
2023/10/17 11:41:29;;;;;;;11.73;4.10;;;;;;;14.57;36.12;99585.62;4452465;32;34586;-90
2023/10/17 11:44:06;;;;;;;8.80;5.07;;;;;;;14.62;35.57;99575.19;4466201;32;34041;-91
2023/10/17 11:46:35;;;;;;;7.93;3.78;;;;;;;14.83;36.21;99577.88;4453949;32;33537;-91
2023/10/17 11:49:20;;;;;;;8.57;3.62;;;;;;;14.83;37.60;99578.72;4467985;32;34717;-90
2023/10/17 11:51:56;;;;;;;6.72;3.53;;;;;;;14.78;37.81;99579.59;4468090;32;33820;-89
2023/10/17 11:54:24;;;;;;;22.20;5.28;;;;;;;14.80;37.95;99583.06;4454115;32;33966;-90
2023/10/17 11:56:55;;;;;;;10.43;3.50;;;;;;;15.17;36.33;99577.91;4468472;32;32967;-89
2023/10/17 11:59:23;;;;;;;6.90;3.83;;;;;;;14.86;35.83;99580.50;4454405;32;33758;-90
2023/10/17 12:01:52;;;;;;;8.52;3.55;;;;;;;14.97;35.41;99584.00;4468142;32;35503;-89
2023/10/17 12:04:23;;;;;;;6.50;3.28;;;;;;;14.62;36.43;99572.59;4468210;32;34140;-90
2023/10/17 12:06:51;;;;;;;10.55;3.87;;;;;;;14.84;37.17;99570.03;4454060;32;32812;-90
2023/10/17 12:09:22;;;;;;;8.82;3.87;;;;;;;14.83;36.64;99568.28;4468009;32;34436;-89
2023/10/17 12:11:51;;;;;;;9.40;3.25;;;;;;;14.96;35.72;99570.91;4441570;32;33073;-89
2023/10/17 12:14:20;;;;;;;8.27;3.75;;;;;;;14.63;37.56;99561.31;4453989;32;33743;-89
2023/10/17 12:16:48;;;;;;;7.25;3.10;;;;;;;14.73;35.17;99563.03;4441158;32;33151;-88
2023/10/17 12:19:19;;;;;;;7.05;3.22;;;;;;;14.65;37.02;99554.34;4468351;32;33924;-89
2023/10/17 12:21:49;;;;;;;8.10;3.53;;;;;;;14.79;37.00;99555.25;4467911;32;34911;-89
2023/10/17 12:24:24;;;;;;;7.78;3.47;;;;;;;14.65;37.33;99556.94;4454479;32;33918;-89
2023/10/17 12:26:52;;;;;;;7.47;4.12;;;;;;;14.62;35.73;99559.53;4454787;32;33500;-89
2023/10/17 12:29:21;;;;;;;6.47;3.78;;;;;;;14.88;35.31;99547.41;4468305;32;33903;-91
2023/10/17 12:31:49;;;;;;;9.80;4.20;;;;;;;14.69;36.14;99543.91;4467923;32;33886;-88
2023/10/17 12:34:18;;;;;;;11.73;3.97;;;;;;;14.44;35.61;99542.09;4467910;32;33086;-89
2023/10/17 12:36:49;;;;;;;9.30;3.50;;;;;;;14.35;36.46;99543.75;4467982;32;33885;-89
2023/10/17 12:39:16;;;;;;;6.75;3.72;;;;;;;14.36;37.59;99548.12;4468090;32;32898;-89
2023/10/17 12:41:46;;;;;;;7.80;3.03;;;;;;;14.48;38.50;99542.09;4468057;32;34736;-90
2023/10/17 12:44:13;;;;;;;8.43;4.28;;;;;;;14.03;37.54;99535.81;4454214;32;34394;-88
2023/10/17 12:46:41;;;;;;;7.57;4.10;;;;;;;14.33;36.07;99531.59;4468080;32;32962;-88
2023/10/17 12:49:11;;;;;;;8.48;3.17;;;;;;;14.57;37.67;99526.47;4453602;32;33097;-89
2023/10/17 12:51:41;;;;;;;5.90;3.20;;;;;;;14.50;37.23;99523.84;4467656;32;34155;-90
2023/10/17 12:54:10;;;;;;;9.02;4.25;;;;;;;14.48;35.99;99523.81;4449763;32;33506;-87
2023/10/17 12:56:37;;;;;;;8.45;3.10;;;;;;;14.86;36.10;99524.81;4446570;32;33434;-86
2023/10/17 12:59:12;;;;;;;9.35;3.70;;;;;;;14.36;38.20;99522.06;4452264;32;33620;-86
2023/10/17 13:01:40;;;;;;;5.87;3.22;;;;;;;14.36;37.52;99519.44;4437815;32;35384;-87
2023/10/17 13:04:09;;;;;;;10.63;3.97;;;;;;;14.53;38.66;99522.13;4452170;32;34609;-87
2023/10/17 13:06:38;;;;;;;7.87;4.22;;;;;;;14.68;37.63;99517.81;4452199;32;33602;-87
2023/10/17 13:09:05;;;;;;;9.75;3.50;;;;;;;14.76;36.19;99524.78;4451597;32;34815;-88
2023/10/17 13:11:33;;;;;;;10.48;4.37;;;;;;;14.74;38.48;99521.31;4456929;32;33616;-85
2023/10/17 13:14:01;;;;;;;7.75;3.87;;;;;;;14.76;37.55;99516.06;4474762;32;33669;-86
2023/10/17 13:16:28;;;;;;;10.77;4.78;;;;;;;14.87;36.71;99521.31;4483262;32;33691;-87
2023/10/17 13:18:56;;;;;;;6.93;3.42;;;;;;;14.87;35.16;99522.19;4469752;32;34105;-87
2023/10/17 13:21:25;;;;;;;8.73;3.53;;;;;;;14.70;34.75;99519.56;4467456;32;34008;-89
2023/10/17 13:23:53;;;;;;;7.90;3.45;;;;;;;14.79;34.82;99510.88;4467555;32;33581;-89
2023/10/17 13:26:22;;;;;;;9.40;3.33;;;;;;;14.49;35.96;99507.34;4467184;32;33494;-88
2023/10/17 13:28:50;;;;;;;8.60;3.20;;;;;;;14.00;36.02;99509.75;4467671;32;33709;-87
2023/10/17 13:31:18;;;;;;;7.00;3.30;;;;;;;14.62;35.77;99507.34;4453427;32;34745;-87
2023/10/17 13:33:49;;;;;;;8.63;3.78;;;;;;;14.75;34.70;99498.69;4467839;32;33857;-92
2023/10/17 13:36:17;;;;;;;7.35;2.85;;;;;;;14.77;34.17;99502.16;4467512;32;33317;-93
2023/10/17 13:38:44;;;;;;;7.35;3.45;;;;;;;14.30;38.15;99505.50;4467640;32;33556;-92
2023/10/17 13:41:15;;;;;;;7.57;3.33;;;;;;;14.45;37.45;99518.59;4467711;32;34625;-91
2023/10/17 13:43:43;;;;;;;6.07;3.20;;;;;;;14.62;35.79;99507.34;4467636;32;33537;-88
2023/10/17 13:46:14;;;;;;;7.55;2.83;;;;;;;14.66;37.52;99506.47;4453406;32;34046;-90
2023/10/17 13:48:49;;;;;;;8.43;2.90;;;;;;;14.49;36.05;99507.34;4467228;32;33526;-90
2023/10/17 13:51:18;;;;;;;6.32;2.55;;;;;;;14.62;37.61;99510.81;4454213;32;33921;-91
2023/10/17 13:53:46;;;;;;;6.00;2.50;;;;;;;14.53;38.18;99511.69;4467426;32;34267;-93
2023/10/17 13:56:16;;;;;;;6.60;2.92;;;;;;;14.50;38.83;99510.81;4467201;32;33180;-91
2023/10/17 13:58:47;;;;;;;5.30;2.47;;;;;;;14.63;36.34;99506.50;4453763;32;33899;-91
2023/10/17 14:03:59;;;;;;;5.80;2.83;;;;;;;14.50;37.98;99493.41;4454812;32;33745;-92
2023/10/17 14:06:27;;;;;;;5.43;2.92;;;;;;;14.56;38.32;99490.81;4453569;32;33356;-93
2023/10/17 14:08:55;;;;;;;7.53;2.95;;;;;;;14.50;38.69;99505.59;4452284;32;33710;-89
2023/10/17 14:11:24;;;;;;;7.32;2.42;;;;;;;14.34;34.66;99500.31;4467236;32;33664;-90
2023/10/17 14:13:51;;;;;;;6.70;2.58;;;;;;;14.32;39.66;99501.19;4467401;32;34713;-91